createdAt,value
2022-09-03T00:03:18.746Z,101321.50
2022-09-03T00:06:48.885Z,101317.44
2022-09-03T00:09:51.238Z,101330.56
2022-09-03T00:12:48.404Z,101325.22
2022-09-03T00:15:45.807Z,101318.94
2022-09-03T00:18:46.644Z,101329.66
2022-09-03T00:21:57.560Z,101337.91
2022-09-03T00:24:54.403Z,101333.41
2022-09-03T00:27:55.205Z,101339.16
2022-09-03T00:31:15.105Z,101335.91
2022-09-03T00:34:12.472Z,101326.88
2022-09-03T00:37:14.502Z,101317.72
2022-09-03T00:40:57.597Z,101319.31
2022-09-03T00:44:01.277Z,101309.72
2022-09-03T00:47:09.920Z,101296.88
2022-09-03T00:50:25.477Z,101305.38
2022-09-03T00:53:54.935Z,101318.63
2022-09-03T00:56:59.470Z,101310.63
2022-09-03T01:00:00.299Z,101319.66
2022-09-03T01:03:12.556Z,101313.78
2022-09-03T01:06:39.962Z,101307.16
2022-09-03T01:10:02.402Z,101305.44
2022-09-03T01:13:03.367Z,101299.97
2022-09-03T01:16:20.588Z,101302.03
2022-09-03T01:19:44.163Z,101320.66
2022-09-03T01:23:12.204Z,101314.63
2022-09-03T01:26:32.215Z,101310.56
2022-09-03T01:29:39.644Z,101311.44
2022-09-03T01:32:58.897Z,101307.69
2022-09-03T01:36:04.380Z,101302.81
2022-09-03T01:39:03.910Z,101288.72
2022-09-03T01:42:20.479Z,101293.97
2022-09-03T01:45:51.191Z,101287.13
2022-09-03T01:48:54.506Z,101282.06
2022-09-03T01:52:03.965Z,101278.59
2022-09-03T01:55:21.473Z,101285.88
2022-09-03T01:58:31.595Z,101291.59
2022-09-03T02:01:32.154Z,101297.88
2022-09-03T02:04:29.919Z,101305.22
2022-09-03T02:07:38.954Z,101318.81
2022-09-03T02:10:41.941Z,101314.09
2022-09-03T02:13:43.901Z,101302.16
2022-09-03T02:16:40.503Z,101304.53
2022-09-03T02:19:37.795Z,101311.69
2022-09-03T02:22:34.767Z,101320.78
2022-09-03T02:25:41.114Z,101311.88
2022-09-03T02:28:38.419Z,101297.22
2022-09-03T02:31:35.912Z,101303.75
2022-09-03T02:34:32.928Z,101310.59
2022-09-03T02:37:29.633Z,101304.69
2022-09-03T02:40:26.994Z,101305.38
2022-09-03T02:43:32.901Z,101281.72
2022-09-03T02:46:49.923Z,101284.09
2022-09-03T02:49:48.745Z,101295.00
2022-09-03T02:52:46.940Z,101287.09
2022-09-03T02:55:43.940Z,101294.84
2022-09-03T02:58:41.527Z,101295.22
2022-09-03T03:01:39.122Z,101295.81
2022-09-03T03:04:39.506Z,101294.09
2022-09-03T03:07:38.054Z,101300.47
2022-09-03T03:10:36.307Z,101293.69
2022-09-03T03:13:34.282Z,101295.66
2022-09-03T03:16:31.687Z,101295.97
2022-09-03T03:19:29.012Z,101298.88
2022-09-03T03:22:27.980Z,101307.13
2022-09-03T03:25:26.012Z,101294.66
2022-09-03T03:28:23.177Z,101288.28
2022-09-03T03:31:22.269Z,101287.25
2022-09-03T03:34:19.696Z,101299.00
2022-09-03T03:37:16.669Z,101292.16
2022-09-03T03:40:13.576Z,101280.16
2022-09-03T03:43:10.881Z,101289.56
2022-09-03T03:46:08.038Z,101290.72
2022-09-03T03:49:06.720Z,101296.84
2022-09-03T03:52:04.521Z,101300.34
2022-09-03T03:55:01.628Z,101295.50
2022-09-03T03:57:58.981Z,101288.44
2022-09-03T04:00:55.778Z,101287.09
2022-09-03T04:03:55.168Z,101278.75
2022-09-03T04:06:53.975Z,101300.13
2022-09-03T04:09:52.109Z,101287.03
2022-09-03T04:12:49.045Z,101273.06
2022-09-03T04:15:46.116Z,101289.09
2022-09-03T04:18:42.456Z,101272.06
2022-09-03T04:21:40.108Z,101289.75
2022-09-03T04:24:36.811Z,101287.34
2022-09-03T04:27:33.951Z,101281.47
2022-09-03T04:30:30.720Z,101281.09
2022-09-03T04:33:27.832Z,101282.72
2022-09-03T04:36:26.260Z,101279.72
2022-09-03T04:39:23.880Z,101291.63
2022-09-03T04:42:20.847Z,101282.53
2022-09-03T04:45:18.965Z,101263.00
2022-09-03T04:48:16.172Z,101263.75
2022-09-03T04:51:14.957Z,101264.31
2022-09-03T04:54:12.199Z,101276.34
2022-09-03T04:57:10.506Z,101282.19
2022-09-03T05:00:10.728Z,101275.91
2022-09-03T05:03:08.085Z,101289.19
2022-09-03T05:06:06.417Z,101283.81
2022-09-03T05:09:05.298Z,101285.41
2022-09-03T05:12:02.995Z,101287.66
2022-09-03T05:15:04.217Z,101283.59
2022-09-03T05:18:02.544Z,101291.88
2022-09-03T05:21:03.128Z,101279.16
2022-09-03T05:24:00.166Z,101274.44
2022-09-03T05:26:56.798Z,101265.88
2022-09-03T05:29:53.741Z,101285.97
2022-09-03T05:32:51.393Z,101280.97
2022-09-03T05:35:48.832Z,101279.75
2022-09-03T05:38:46.040Z,101276.09
2022-09-03T05:41:42.987Z,101281.09
2022-09-03T05:44:39.863Z,101274.38
2022-09-03T05:47:39.531Z,101254.47
2022-09-03T05:50:37.192Z,101261.44
2022-09-03T05:53:35.357Z,101269.72
2022-09-03T05:56:33.584Z,101261.63
2022-09-03T05:59:30.993Z,101265.19
2022-09-03T06:02:28.073Z,101277.59
2022-09-03T06:05:25.372Z,101278.47
2022-09-03T06:08:22.764Z,101272.19
2022-09-03T06:11:20.756Z,101273.06
2022-09-03T06:14:18.103Z,101279.16
2022-09-03T06:17:15.171Z,101281.31
2022-09-03T06:20:11.969Z,101279.94
2022-09-03T06:23:09.091Z,101284.25
2022-09-03T06:26:07.039Z,101298.31
2022-09-03T06:29:04.332Z,101288.56
2022-09-03T06:32:04.694Z,101281.50
2022-09-03T06:35:02.134Z,101278.81
2022-09-03T06:38:00.498Z,101287.50
2022-09-03T06:41:02.045Z,101294.97
2022-09-03T06:44:03.421Z,101298.72
2022-09-03T06:47:01.583Z,101290.53
2022-09-03T06:50:00.221Z,101295.50
2022-09-03T06:52:56.949Z,101292.78
2022-09-03T06:55:55.317Z,101293.66
2022-09-03T06:58:59.827Z,101294.91
2022-09-03T07:01:58.657Z,101277.19
2022-09-03T07:04:56.303Z,101290.53
2022-09-03T07:07:52.793Z,101289.91
2022-09-03T07:10:51.267Z,101296.03
2022-09-03T07:13:49.120Z,101292.59
2022-09-03T07:16:46.470Z,101277.84
2022-09-03T07:19:43.995Z,101285.31
2022-09-03T07:22:41.340Z,101278.31
2022-09-03T07:25:39.094Z,101285.41
2022-09-03T07:28:37.433Z,101291.22
2022-09-03T07:31:37.478Z,101279.03
2022-09-03T07:34:35.703Z,101291.16
2022-09-03T07:37:35.508Z,101277.97
2022-09-03T07:40:33.329Z,101298.13
2022-09-03T07:43:32.088Z,101282.19
2022-09-03T07:46:29.525Z,101288.88
2022-09-03T07:49:27.032Z,101285.78
2022-09-03T07:52:24.066Z,101278.53
2022-09-03T07:55:20.986Z,101263.78
2022-09-03T07:58:18.187Z,101283.09
2022-09-03T08:01:18.067Z,101282.75
2022-09-03T08:04:15.195Z,101269.63
2022-09-03T08:07:12.269Z,101274.53
2022-09-03T08:10:09.537Z,101267.56
2022-09-03T08:13:07.231Z,101292.63
2022-09-03T08:16:05.480Z,101299.22
2022-09-03T08:19:03.808Z,101293.06
2022-09-03T08:22:00.938Z,101299.66
2022-09-03T08:24:58.249Z,101291.88
2022-09-03T08:27:57.800Z,101302.94
2022-09-03T08:30:55.529Z,101297.13
2022-09-03T08:33:54.103Z,101291.31
2022-09-03T08:36:53.332Z,101273.72
2022-09-03T08:39:51.146Z,101288.03
2022-09-03T08:43:09.718Z,101272.81
2022-09-03T08:46:07.069Z,101276.47
2022-09-03T08:49:04.390Z,101280.88
2022-09-03T08:52:05.872Z,101271.84
2022-09-03T08:55:07.571Z,101273.84
2022-09-03T08:58:18.755Z,101279.06
2022-09-03T09:01:59.227Z,101272.44
2022-09-03T09:05:19.503Z,101279.41
2022-09-03T09:08:27.093Z,101279.78
2022-09-03T09:11:33.718Z,101287.72
2022-09-03T09:14:56.277Z,101274.03
2022-09-03T09:18:03.099Z,101275.13
2022-09-03T09:21:07.892Z,101270.16
2022-09-03T09:24:08.784Z,101272.47
2022-09-03T09:27:06.106Z,101261.81
2022-09-03T09:30:04.862Z,101252.53
2022-09-03T09:33:03.152Z,101265.78
2022-09-03T09:36:02.959Z,101254.09
2022-09-03T09:39:09.697Z,101244.22
2022-09-03T09:42:11.370Z,101254.75
2022-09-03T09:45:11.559Z,101258.44
2022-09-03T09:48:17.713Z,101263.47
2022-09-03T09:51:31.137Z,101236.03
2022-09-03T09:54:27.920Z,101233.81
2022-09-03T09:57:25.383Z,101230.28
2022-09-03T10:00:21.944Z,101241.19
2022-09-03T10:03:21.287Z,101241.50
2022-09-03T10:06:36.854Z,101227.13
2022-09-03T10:09:34.352Z,101238.19
2022-09-03T10:12:42.193Z,101240.47
2022-09-03T10:15:48.200Z,101224.06
2022-09-03T10:18:51.478Z,101230.22
2022-09-03T10:22:06.147Z,101229.72
2022-09-03T10:25:03.647Z,101217.63
2022-09-03T10:28:02.138Z,101224.50
2022-09-03T10:31:37.126Z,101222.94
2022-09-03T10:35:04.136Z,101220.94
2022-09-03T10:38:36.652Z,101232.94
2022-09-03T10:42:02.660Z,101232.38
2022-09-03T10:45:09.719Z,101229.69
2022-09-03T10:48:29.058Z,101230.53
2022-09-03T10:51:41.040Z,101214.53
2022-09-03T10:54:57.292Z,101207.22
2022-09-03T10:58:03.311Z,101212.88
2022-09-03T11:01:07.212Z,101207.81
2022-09-03T11:04:20.045Z,101212.75
2022-09-03T11:07:20.779Z,101204.69
2022-09-03T11:10:41.091Z,101200.09
2022-09-03T11:13:45.098Z,101202.63
2022-09-03T11:17:15.791Z,101187.13
2022-09-03T11:20:23.820Z,101201.28
2022-09-03T11:23:21.870Z,101200.78
2022-09-03T11:26:19.890Z,101197.31
2022-09-03T11:29:30.456Z,101198.69
2022-09-03T11:32:39.922Z,101193.66
2022-09-03T11:35:36.914Z,101196.72
2022-09-03T11:38:34.550Z,101202.66
2022-09-03T11:41:35.845Z,101201.53
2022-09-03T11:44:45.900Z,101194.56
2022-09-03T11:47:48.742Z,101183.25
2022-09-03T11:50:54.405Z,101182.22
2022-09-03T11:54:15.727Z,101191.13
2022-09-03T11:57:25.098Z,101201.50
2022-09-03T12:00:25.017Z,101191.00
2022-09-03T12:03:31.217Z,101190.88
2022-09-03T12:06:59.736Z,101184.25
2022-09-03T12:10:21.717Z,101177.34
2022-09-03T12:13:41.921Z,101181.75
2022-09-03T12:17:04.175Z,101188.34
2022-09-03T12:20:01.702Z,101177.59
2022-09-03T12:22:59.393Z,101182.94
2022-09-03T12:26:05.323Z,101174.50
2022-09-03T12:29:02.724Z,101166.75
2022-09-03T12:32:11.730Z,101188.59
2022-09-03T12:39:01.033Z,101183.56
2022-09-03T12:42:07.753Z,101180.03
2022-09-03T12:45:07.146Z,101191.91
2022-09-03T12:48:05.411Z,101193.81
2022-09-03T12:51:47.827Z,101174.66
2022-09-03T12:54:20.463Z,101169.22
2022-09-03T12:57:19.887Z,101166.31
2022-09-03T13:00:18.825Z,101165.69
2022-09-03T13:03:24.707Z,101160.06
2022-09-03T13:06:26.559Z,101160.88
2022-09-03T13:09:24.519Z,101159.97
2022-09-03T13:12:33.532Z,101142.44
2022-09-03T13:15:31.594Z,101144.06
2022-09-03T13:18:57.029Z,101138.91
2022-09-03T13:22:15.760Z,101152.28
2022-09-03T13:25:21.245Z,101145.75
2022-09-03T13:28:54.691Z,101149.53
2022-09-03T13:31:55.670Z,101146.94
2022-09-03T13:34:55.860Z,101134.81
2022-09-03T13:37:58.198Z,101129.59
2022-09-03T13:41:21.137Z,101141.97
2022-09-03T13:44:20.121Z,101139.44
2022-09-03T13:47:29.869Z,101128.25
2022-09-03T13:50:28.472Z,101138.44
2022-09-03T13:53:51.865Z,101135.72
2022-09-03T13:57:08.032Z,101124.88
2022-09-03T14:00:09.006Z,101140.06
2022-09-03T14:03:16.664Z,101151.22
2022-09-03T14:06:32.382Z,101153.94
2022-09-03T14:09:51.970Z,101138.50
2022-09-03T14:13:12.059Z,101121.00
2022-09-03T14:16:30.865Z,101119.88
2022-09-03T14:19:49.093Z,101134.19
2022-09-03T14:22:57.621Z,101135.63
2022-09-03T14:25:58.025Z,101131.88
2022-09-03T14:29:03.231Z,101134.72
2022-09-03T14:32:29.440Z,101138.19
2022-09-03T14:35:50.656Z,101130.47
2022-09-03T14:39:18.233Z,101124.34
2022-09-03T14:42:37.044Z,101134.31
2022-09-03T14:45:55.825Z,101119.19
2022-09-03T14:49:12.043Z,101117.59
2022-09-03T14:52:31.524Z,101115.31
2022-09-03T14:55:35.519Z,101113.78
2022-09-03T14:58:35.329Z,101108.13
2022-09-03T15:01:39.503Z,101108.25
2022-09-03T15:05:02.570Z,101110.31
2022-09-03T15:08:18.828Z,101121.72
2022-09-03T15:11:22.820Z,101114.00
2022-09-03T15:14:41.609Z,101114.28
2022-09-03T15:18:07.653Z,101118.53
2022-09-03T15:21:24.510Z,101130.53
2022-09-03T15:24:27.636Z,101115.19
2022-09-03T15:27:42.074Z,101113.50
2022-09-03T15:30:45.194Z,101122.91
2022-09-03T15:34:13.167Z,101127.59
2022-09-03T15:37:57.827Z,101138.19
2022-09-03T15:40:57.125Z,101118.56
2022-09-03T15:43:58.952Z,101130.03
2022-09-03T15:47:00.516Z,101124.25
2022-09-03T15:50:10.415Z,101121.81
2022-09-03T15:53:22.519Z,101130.03
2022-09-03T15:56:39.880Z,101123.00
2022-09-03T15:59:42.684Z,101123.72
2022-09-03T16:03:20.416Z,101114.88
2022-09-03T16:06:20.937Z,101128.19
2022-09-03T16:09:27.894Z,101119.50
2022-09-03T16:13:04.653Z,101146.50
2022-09-03T16:16:05.996Z,101138.81
2022-09-03T16:19:12.113Z,101137.38
2022-09-03T16:22:42.442Z,101138.97
2022-09-03T16:26:11.131Z,101130.94
2022-09-03T16:29:15.781Z,101124.38
2022-09-03T16:32:32.502Z,101125.66
2022-09-03T16:35:33.050Z,101130.69
2022-09-03T16:38:49.824Z,101147.88
2022-09-03T16:41:53.116Z,101148.69
2022-09-03T16:44:59.925Z,101147.34
2022-09-03T16:48:12.215Z,101136.56
2022-09-03T16:51:45.311Z,101141.50
2022-09-03T16:55:08.626Z,101146.75
2022-09-03T16:58:22.290Z,101148.34
2022-09-03T17:01:39.713Z,101141.59
2022-09-03T17:04:46.368Z,101135.03
2022-09-03T17:08:16.377Z,101152.75
2022-09-03T17:11:26.951Z,101141.63
2022-09-03T17:14:27.636Z,101145.47
2022-09-03T17:17:43.570Z,101141.50
2022-09-03T17:21:28.886Z,101158.09
2022-09-03T17:24:50.833Z,101152.88
2022-09-03T17:27:52.090Z,101158.47
2022-09-03T17:31:16.137Z,101152.31
2022-09-03T17:34:29.660Z,101155.75
2022-09-03T17:37:50.283Z,101156.78
2022-09-03T17:41:04.146Z,101166.50
2022-09-03T17:44:23.086Z,101176.88
2022-09-03T17:47:57.267Z,101165.25
2022-09-03T17:51:01.754Z,101172.72
2022-09-03T17:54:09.314Z,101170.34
2022-09-03T17:57:24.690Z,101170.84
2022-09-03T18:00:45.904Z,101170.88
2022-09-03T18:04:05.115Z,101184.00
2022-09-03T18:07:10.725Z,101184.84
2022-09-03T18:10:40.108Z,101186.78
2022-09-03T18:13:46.176Z,101176.41
2022-09-03T18:16:56.424Z,101183.50
2022-09-03T18:20:25.444Z,101192.88
2022-09-03T18:23:49.081Z,101196.56
2022-09-03T18:27:08.051Z,101204.94
2022-09-03T18:30:29.208Z,101201.75
2022-09-03T18:33:44.990Z,101214.16
2022-09-03T18:37:01.307Z,101216.34
2022-09-03T18:40:17.131Z,101219.31
2022-09-03T18:43:43.028Z,101218.91
2022-09-03T18:50:56.737Z,101220.50
2022-09-03T18:55:03.950Z,101217.75
2022-09-03T18:58:37.929Z,101226.69
2022-09-03T19:01:58.479Z,101234.16
2022-09-03T19:05:42.640Z,101234.00
2022-09-03T19:09:05.747Z,101252.41
2022-09-03T19:12:42.834Z,101254.91
2022-09-03T19:16:18.379Z,101270.91
2022-09-03T19:19:46.486Z,101262.41
2022-09-03T19:23:02.742Z,101258.75
2022-09-03T19:26:26.950Z,101264.59
2022-09-03T19:30:08.847Z,101271.19
2022-09-03T19:33:42.903Z,101276.97
2022-09-03T19:37:23.236Z,101289.13
2022-09-03T19:41:03.888Z,101290.00
2022-09-03T19:44:19.405Z,101288.41
2022-09-03T19:47:59.545Z,101288.53
2022-09-03T19:51:35.512Z,101306.47
2022-09-03T19:54:51.485Z,101284.84
2022-09-03T19:58:26.165Z,101285.75
2022-09-03T20:01:55.291Z,101291.44
2022-09-03T20:05:19.018Z,101303.28
2022-09-03T20:08:35.319Z,101322.06
2022-09-03T20:11:32.625Z,101307.31
2022-09-03T20:14:29.853Z,101323.66
2022-09-03T20:17:43.119Z,101324.94
2022-09-03T20:21:21.349Z,101332.72
2022-09-03T20:24:40.002Z,101327.53
2022-09-03T20:27:48.813Z,101324.69
2022-09-03T20:30:51.888Z,101339.47
2022-09-03T20:34:06.856Z,101321.66
2022-09-03T20:37:24.941Z,101329.91
2022-09-03T20:40:54.613Z,101332.00
2022-09-03T20:44:01.568Z,101341.00
2022-09-03T20:47:26.650Z,101357.41
2022-09-03T20:50:41.198Z,101354.97
2022-09-03T20:54:03.688Z,101362.38
2022-09-03T20:57:14.569Z,101368.53
2022-09-03T21:00:14.146Z,101359.56
2022-09-03T21:03:49.965Z,101358.81
2022-09-03T21:06:58.755Z,101340.09
2022-09-03T21:10:04.046Z,101358.56
2022-09-03T21:13:16.488Z,101372.09
2022-09-03T21:17:00.305Z,101384.34
2022-09-03T21:20:08.304Z,101365.53
2022-09-03T21:23:24.550Z,101362.28
2022-09-03T21:26:29.871Z,101363.13
2022-09-03T21:29:29.463Z,101370.13
2022-09-03T21:32:54.244Z,101382.41
2022-09-03T21:35:54.757Z,101393.50
2022-09-03T21:39:06.244Z,101395.97
2022-09-03T21:42:21.327Z,101411.50
2022-09-03T21:45:37.004Z,101415.22
2022-09-03T21:48:46.812Z,101404.16
2022-09-03T21:51:58.753Z,101419.72
2022-09-03T21:54:55.799Z,101421.78
2022-09-03T21:58:16.894Z,101423.00
2022-09-03T22:01:26.373Z,101424.66
2022-09-03T22:04:28.141Z,101425.50
2022-09-03T22:07:53.412Z,101432.03
2022-09-03T22:10:54.051Z,101439.03
2022-09-03T22:13:59.142Z,101429.16
2022-09-03T22:17:16.825Z,101434.06
2022-09-03T22:20:15.555Z,101425.50
2022-09-03T22:23:15.636Z,101426.34
2022-09-03T22:26:27.960Z,101427.13
2022-09-03T22:29:49.218Z,101425.09
2022-09-03T22:33:10.305Z,101414.84
2022-09-03T22:36:28.548Z,101436.97
2022-09-03T22:39:37.555Z,101438.19
2022-09-03T22:42:56.689Z,101422.16
2022-09-03T22:46:12.944Z,101405.31
2022-09-03T22:49:11.232Z,101408.59
2022-09-03T22:52:22.568Z,101415.91
2022-09-03T22:55:23.172Z,101411.78
2022-09-03T22:58:28.951Z,101415.88
2022-09-03T23:01:31.491Z,101401.09
2022-09-03T23:04:42.340Z,101397.75
2022-09-03T23:07:46.282Z,101399.78
2022-09-03T23:11:10.382Z,101393.59
2022-09-03T23:14:09.758Z,101396.81
2022-09-03T23:17:10.140Z,101405.31
2022-09-03T23:23:13.347Z,101409.31
2022-09-03T23:26:42.907Z,101423.66
2022-09-03T23:29:42.863Z,101417.50
2022-09-03T23:32:39.849Z,101419.09
2022-09-03T23:35:56.636Z,101428.09
2022-09-03T23:39:18.472Z,101424.44
2022-09-03T23:42:43.053Z,101435.19
2022-09-03T23:45:49.383Z,101420.47
2022-09-03T23:48:46.676Z,101415.91
2022-09-03T23:52:00.664Z,101436.84
2022-09-03T23:55:19.505Z,101424.09
2022-09-03T23:58:20.607Z,101433.06
